Time;durP1;ratioP1;P1;durP2;ratioP2;P2;SDS_P1;SDS_P2;PMS_P1;PMS_P2;Temp;Humidity;BMP_temperature;BMP_pressure;BME280_temperature;BME280_humidity;BME280_pressure;Samples;Min_cycle;Max_cycle;Signal;HPM_P1;HPM_P2
2022/05/22 00:00:40;;;;;;;;;;;11.90;99.90;;;;;;4967910;28;19926;-63
2022/05/22 00:03:08;;;;;;;;;;;11.90;99.90;;;;;;4970665;28;19934;-63
2022/05/22 00:05:34;;;;;;;;;;;11.80;99.90;;;;;;4978972;28;20336;-62
2022/05/22 00:08:02;;;;;;;;;;;11.70;99.90;;;;;;4981640;28;19926;-62
2022/05/22 00:10:29;;;;;;;;;;;11.70;99.90;;;;;;4973318;28;20343;-62
2022/05/22 00:12:56;;;;;;;;;;;11.60;99.90;;;;;;4973596;28;19961;-63
2022/05/22 00:15:23;;;;;;;;;;;11.60;99.90;;;;;;4975046;28;19933;-62
2022/05/22 00:17:49;;;;;;;;;;;11.60;99.90;;;;;;4975605;28;20001;-63
2022/05/22 00:20:16;;;;;;;;;;;11.50;99.90;;;;;;4975957;28;19935;-63
2022/05/22 00:22:42;;;;;;;;;;;11.40;99.90;;;;;;4976735;28;20037;-63
2022/05/22 00:25:11;;;;;;;;;;;11.40;99.90;;;;;;4970040;28;19937;-63
2022/05/22 00:27:38;;;;;;;;;;;11.40;99.90;;;;;;4990782;28;20300;-62
2022/05/22 00:30:06;;;;;;;;;;;11.50;99.90;;;;;;4984589;28;20001;-63
2022/05/22 00:32:32;;;;;;;;;;;11.50;99.90;;;;;;5008685;28;19930;-63
2022/05/22 00:34:59;;;;;;;;;;;11.50;99.90;;;;;;4977134;28;19926;-63
2022/05/22 00:37:25;;;;;;;;;;;11.50;99.90;;;;;;4971968;28;19926;-62
2022/05/22 00:39:52;;;;;;;;;;;11.50;99.90;;;;;;5020965;28;19933;-63
2022/05/22 00:42:21;;;;;;;;;;;11.50;99.90;;;;;;4970801;28;19937;-63
2022/05/22 00:44:48;;;;;;;;;;;11.50;99.90;;;;;;4999681;28;19925;-62
2022/05/22 00:47:15;;;;;;;;;;;11.50;99.90;;;;;;5006904;28;19975;-62
2022/05/22 00:49:43;;;;;;;;;;;11.40;99.90;;;;;;4964648;28;19926;-62
2022/05/22 00:52:12;;;;;;;;;;;11.20;99.90;;;;;;4986137;28;19948;-63
2022/05/22 00:54:40;;;;;;;;;;;11.10;99.90;;;;;;4969821;28;19926;-62
2022/05/22 00:57:08;;;;;;;;;;;11.10;99.90;;;;;;4970980;28;19930;-62
2022/05/22 00:59:39;;;;;;;;;;;11.10;99.90;;;;;;4974416;28;19948;-63
2022/05/22 01:02:06;;;;;;;;;;;11.10;99.90;;;;;;4988273;28;19926;-62
2022/05/22 01:04:34;;;;;;;;;;;11.20;99.90;;;;;;4967240;28;19931;-63
2022/05/22 01:07:02;;;;;;;;;;;11.20;99.90;;;;;;4984750;28;19935;-62
2022/05/22 01:09:28;;;;;;;;;;;11.20;99.90;;;;;;4983902;28;20016;-62
2022/05/22 01:11:58;;;;;;;;;;;11.20;99.90;;;;;;4979873;28;20016;-63
2022/05/22 01:14:26;;;;;;;;;;;11.20;99.90;;;;;;4995537;28;20005;-65
2022/05/22 01:16:55;;;;;;;;;;;11.10;99.90;;;;;;4973893;28;19926;-63
2022/05/22 01:19:23;;;;;;;;;;;11.10;99.90;;;;;;4970167;28;19926;-63
2022/05/22 01:21:52;;;;;;;;;;;11.20;99.90;;;;;;4971609;28;19926;-63
2022/05/22 01:24:21;;;;;;;;;;;11.20;99.90;;;;;;4973636;28;20087;-62
2022/05/22 01:26:49;;;;;;;;;;;11.20;99.90;;;;;;4970071;28;20375;-63
2022/05/22 01:29:16;;;;;;;;;;;11.20;99.90;;;;;;4965259;28;20472;-63
2022/05/22 01:31:42;;;;;;;;;;;11.20;99.90;;;;;;4984460;28;20289;-63
2022/05/22 01:34:09;;;;;;;;;;;11.20;99.90;;;;;;4968059;28;19930;-63
2022/05/22 01:36:36;;;;;;;;;;;11.10;99.90;;;;;;5032852;28;19930;-62
2022/05/22 01:39:04;;;;;;;;;;;11.10;99.90;;;;;;4969556;28;20304;-63
2022/05/22 01:41:30;;;;;;;;;;;11.10;99.90;;;;;;4970999;28;19926;-63
2022/05/22 01:43:57;;;;;;;;;;;11.10;99.90;;;;;;4972062;28;19926;-63
2022/05/22 01:46:24;;;;;;;;;;;11.10;99.90;;;;;;4992868;28;19930;-63
2022/05/22 01:48:50;;;;;;;;;;;11.10;99.90;;;;;;4970633;28;19933;-63
2022/05/22 01:51:17;;;;;;;;;;;11.10;99.90;;;;;;5009806;28;19926;-63
2022/05/22 01:53:44;;;;;;;;;;;11.10;99.90;;;;;;4966863;28;20016;-63
2022/05/22 01:56:12;;;;;;;;;;;11.10;99.90;;;;;;4970644;28;20033;-63
2022/05/22 01:58:38;;;;;;;;;;;11.10;99.90;;;;;;4974713;28;19930;-63
2022/05/22 02:01:07;;;;;;;;;;;11.10;99.90;;;;;;4991677;28;19926;-63
2022/05/22 02:03:34;;;;;;;;;;;11.00;99.90;;;;;;5031795;28;19936;-63
2022/05/22 02:06:01;;;;;;;;;;;10.90;99.90;;;;;;4993791;28;19928;-63
2022/05/22 02:08:26;;;;;;;;;;;10.80;99.90;;;;;;4966559;28;19926;-63
2022/05/22 02:10:54;;;;;;;;;;;10.80;99.90;;;;;;4987423;28;19926;-63
2022/05/22 02:13:23;;;;;;;;;;;10.80;99.90;;;;;;4966299;28;19933;-63
2022/05/22 02:15:50;;;;;;;;;;;10.70;99.90;;;;;;4995576;28;19934;-63
2022/05/22 02:18:17;;;;;;;;;;;10.70;99.90;;;;;;4975147;28;19932;-63
2022/05/22 02:20:44;;;;;;;;;;;10.70;99.90;;;;;;5002587;28;20041;-63
2022/05/22 02:23:11;;;;;;;;;;;10.60;99.90;;;;;;4970910;28;19937;-63
2022/05/22 02:25:38;;;;;;;;;;;10.50;99.90;;;;;;4979768;28;19926;-63
2022/05/22 02:28:06;;;;;;;;;;;10.50;99.90;;;;;;4977472;28;20299;-63
2022/05/22 02:30:35;;;;;;;;;;;10.30;99.90;;;;;;4989959;28;19926;-63
2022/05/22 02:33:02;;;;;;;;;;;10.30;99.90;;;;;;4981326;28;19933;-63
2022/05/22 02:35:30;;;;;;;;;;;10.40;99.90;;;;;;4967349;28;19930;-63
2022/05/22 02:37:57;;;;;;;;;;;10.40;99.90;;;;;;4995328;28;19926;-64
2022/05/22 02:40:25;;;;;;;;;;;10.40;99.90;;;;;;4968059;28;20301;-63
2022/05/22 02:42:53;;;;;;;;;;;10.50;99.90;;;;;;4966559;28;19926;-63
2022/05/22 02:45:20;;;;;;;;;;;10.40;99.90;;;;;;4991481;28;20044;-63
2022/05/22 02:47:48;;;;;;;;;;;10.30;99.90;;;;;;5005859;28;20490;-63
2022/05/22 02:50:16;;;;;;;;;;;10.20;99.90;;;;;;4967748;28;19975;-63
2022/05/22 02:52:42;;;;;;;;;;;10.30;99.90;;;;;;4971814;28;19937;-63
2022/05/22 02:55:09;;;;;;;;;;;10.20;99.90;;;;;;4971448;28;19930;-63
2022/05/22 02:57:39;;;;;;;;;;;10.10;99.90;;;;;;5012091;28;20025;-63
2022/05/22 03:00:07;;;;;;;;;;;10.10;99.90;;;;;;4989150;28;19931;-63
2022/05/22 03:02:34;;;;;;;;;;;10.20;99.90;;;;;;4983262;28;19926;-63
2022/05/22 03:05:02;;;;;;;;;;;10.10;99.90;;;;;;4967405;28;19926;-63
2022/05/22 03:07:28;;;;;;;;;;;10.20;99.90;;;;;;4981314;28;19926;-63
2022/05/22 03:09:55;;;;;;;;;;;10.20;99.90;;;;;;4973526;28;19926;-63
2022/05/22 03:12:23;;;;;;;;;;;10.20;99.90;;;;;;4966301;28;19926;-63
2022/05/22 03:14:52;;;;;;;;;;;10.20;99.90;;;;;;4983289;28;20304;-63
2022/05/22 03:17:19;;;;;;;;;;;10.10;99.90;;;;;;5012996;28;19926;-63
2022/05/22 03:19:45;;;;;;;;;;;10.00;99.90;;;;;;5016197;28;19931;-63
2022/05/22 03:22:14;;;;;;;;;;;10.00;99.90;;;;;;4966327;28;19938;-64
2022/05/22 03:24:41;;;;;;;;;;;10.00;99.90;;;;;;4971035;28;20305;-63
2022/05/22 03:27:10;;;;;;;;;;;10.00;99.90;;;;;;5004461;28;20011;-63
2022/05/22 03:29:36;;;;;;;;;;;10.00;99.90;;;;;;5030957;28;19932;-63
2022/05/22 03:32:03;;;;;;;;;;;10.00;99.90;;;;;;4969014;28;19927;-63
2022/05/22 03:34:30;;;;;;;;;;;10.00;99.90;;;;;;4969789;28;20025;-63
2022/05/22 03:36:57;;;;;;;;;;;10.00;99.90;;;;;;4974029;28;19932;-63
2022/05/22 03:39:25;;;;;;;;;;;10.10;99.90;;;;;;5007725;28;19924;-63
2022/05/22 03:41:52;;;;;;;;;;;10.10;99.90;;;;;;4975348;28;19924;-63
2022/05/22 03:44:19;;;;;;;;;;;10.10;99.90;;;;;;4981187;28;19934;-63
2022/05/22 03:46:45;;;;;;;;;;;10.10;99.90;;;;;;4975344;28;20017;-63
2022/05/22 03:49:12;;;;;;;;;;;10.20;99.90;;;;;;4968757;28;19926;-63
2022/05/22 03:51:39;;;;;;;;;;;10.20;99.90;;;;;;4969045;28;19972;-63
2022/05/22 03:54:06;;;;;;;;;;;10.10;99.90;;;;;;4969751;28;19926;-63
2022/05/22 03:56:35;;;;;;;;;;;10.20;99.90;;;;;;4990596;28;20424;-63
2022/05/22 03:59:02;;;;;;;;;;;10.20;99.90;;;;;;4984346;28;19927;-62
2022/05/22 04:01:29;;;;;;;;;;;10.20;99.90;;;;;;4988493;28;20374;-63
2022/05/22 04:03:56;;;;;;;;;;;10.20;99.90;;;;;;4991963;28;19933;-63
2022/05/22 04:06:23;;;;;;;;;;;10.20;99.90;;;;;;4981916;28;20389;-63
2022/05/22 04:08:49;;;;;;;;;;;10.20;99.90;;;;;;4979440;28;20025;-63
2022/05/22 04:11:18;;;;;;;;;;;10.20;99.90;;;;;;4977923;28;19930;-63
2022/05/22 04:13:46;;;;;;;;;;;10.30;99.90;;;;;;4997353;28;19926;-63
2022/05/22 04:16:12;;;;;;;;;;;10.30;99.90;;;;;;4972970;28;19932;-64
2022/05/22 04:18:39;;;;;;;;;;;10.30;99.90;;;;;;4971786;28;19926;-63
2022/05/22 04:21:06;;;;;;;;;;;10.40;99.90;;;;;;5026115;28;19926;-63
2022/05/22 04:26:17;;;;;;;;;;;10.40;99.90;;;;;;4982332;28;19976;-63
2022/05/22 04:28:43;;;;;;;;;;;10.40;99.90;;;;;;4973875;28;19929;-63
2022/05/22 04:31:11;;;;;;;;;;;10.40;99.90;;;;;;4993036;28;19926;-63
2022/05/22 04:33:38;;;;;;;;;;;10.40;99.90;;;;;;5007263;28;19932;-63
2022/05/22 04:36:05;;;;;;;;;;;10.20;99.90;;;;;;4968145;28;19926;-63
2022/05/22 04:38:32;;;;;;;;;;;10.20;99.90;;;;;;4975168;28;19926;-62
2022/05/22 04:40:59;;;;;;;;;;;10.20;99.90;;;;;;4970627;28;19977;-63
2022/05/22 04:43:27;;;;;;;;;;;10.40;99.90;;;;;;5011599;28;20323;-63
2022/05/22 04:45:54;;;;;;;;;;;10.50;99.90;;;;;;4968862;28;19933;-63
2022/05/22 04:48:22;;;;;;;;;;;10.50;99.90;;;;;;4964449;28;19933;-63
2022/05/22 04:50:50;;;;;;;;;;;10.60;99.90;;;;;;5023451;28;20297;-63
2022/05/22 04:53:17;;;;;;;;;;;10.70;99.90;;;;;;5005737;28;19926;-63
2022/05/22 04:55:44;;;;;;;;;;;10.80;99.90;;;;;;4975422;28;19932;-63
2022/05/22 04:58:12;;;;;;;;;;;10.90;99.90;;;;;;5018116;28;20008;-63
2022/05/22 05:00:39;;;;;;;;;;;11.00;99.90;;;;;;4988376;28;20434;-63
2022/05/22 05:03:05;;;;;;;;;;;11.10;99.90;;;;;;4968523;28;20389;-63
2022/05/22 05:05:33;;;;;;;;;;;11.10;99.90;;;;;;4983812;28;19926;-63
2022/05/22 05:08:00;;;;;;;;;;;11.20;99.90;;;;;;5007703;28;20300;-63
2022/05/22 05:10:27;;;;;;;;;;;11.30;99.90;;;;;;4974224;28;19926;-63
2022/05/22 05:12:54;;;;;;;;;;;11.40;99.90;;;;;;4978349;28;20008;-63
2022/05/22 05:15:21;;;;;;;;;;;11.50;99.90;;;;;;4962902;28;19926;-64
2022/05/22 05:17:48;;;;;;;;;;;11.70;99.90;;;;;;4962763;28;19930;-64
2022/05/22 05:20:16;;;;;;;;;;;11.80;99.90;;;;;;4966327;28;20226;-62
2022/05/22 05:22:44;;;;;;;;;;;11.90;99.90;;;;;;4967713;28;19926;-62
2022/05/22 05:25:12;;;;;;;;;;;12.00;99.90;;;;;;5001708;28;20438;-62
2022/05/22 05:27:38;;;;;;;;;;;12.10;99.90;;;;;;4978673;28;20013;-62
2022/05/22 05:30:05;;;;;;;;;;;12.20;99.90;;;;;;4976230;28;19925;-63
2022/05/22 05:32:32;;;;;;;;;;;12.40;99.90;;;;;;4971683;28;19926;-62
2022/05/22 05:35:00;;;;;;;;;;;12.60;99.90;;;;;;4984831;28;19937;-62
2022/05/22 05:37:27;;;;;;;;;;;12.70;99.90;;;;;;4969774;28;19984;-62
2022/05/22 05:39:55;;;;;;;;;;;12.70;99.90;;;;;;4975076;28;19986;-62
2022/05/22 05:42:23;;;;;;;;;;;12.80;99.90;;;;;;4982203;28;19924;-62
2022/05/22 05:44:50;;;;;;;;;;;12.90;99.90;;;;;;4998215;28;20313;-62
2022/05/22 05:47:16;;;;;;;;;;;13.10;99.90;;;;;;4968921;28;20399;-62
2022/05/22 05:49:43;;;;;;;;;;;13.20;99.90;;;;;;4968800;28;20293;-62
2022/05/22 05:52:10;;;;;;;;;;;13.50;99.90;;;;;;5002270;28;20565;-63
2022/05/22 05:54:37;;;;;;;;;;;13.90;99.90;;;;;;5000894;28;20073;-62
2022/05/22 05:57:05;;;;;;;;;;;14.90;99.90;;;;;;4971336;28;19932;-63
2022/05/22 05:59:33;;;;;;;;;;;16.00;99.90;;;;;;4981990;28;19924;-62
2022/05/22 06:02:00;;;;;;;;;;;18.20;99.90;;;;;;4987362;28;19926;-63
2022/05/22 06:04:27;;;;;;;;;;;19.70;93.50;;;;;;4962349;28;21018;-63
2022/05/22 06:06:53;;;;;;;;;;;20.60;78.50;;;;;;4964035;28;20389;-63
2022/05/22 06:09:20;;;;;;;;;;;20.30;74.70;;;;;;4964430;28;19981;-64
2022/05/22 06:11:47;;;;;;;;;;;20.30;77.90;;;;;;4967730;28;20017;-63
2022/05/22 06:14:16;;;;;;;;;;;20.40;73.00;;;;;;4980546;28;19926;-63
2022/05/22 06:16:42;;;;;;;;;;;19.90;72.80;;;;;;4981379;28;19926;-64
2022/05/22 06:19:09;;;;;;;;;;;19.60;77.90;;;;;;4967723;28;20416;-63
2022/05/22 06:21:36;;;;;;;;;;;18.70;83.30;;;;;;5000543;28;20009;-63
2022/05/22 06:24:02;;;;;;;;;;;18.40;87.30;;;;;;4975490;28;19945;-63
2022/05/22 06:26:29;;;;;;;;;;;17.70;89.40;;;;;;5029768;28;19930;-64
2022/05/22 06:28:55;;;;;;;;;;;16.80;93.50;;;;;;4972083;28;19948;-64
2022/05/22 06:31:24;;;;;;;;;;;16.30;98.50;;;;;;4962140;28;20009;-64
2022/05/22 06:33:51;;;;;;;;;;;16.10;98.90;;;;;;4981736;28;20311;-64
2022/05/22 06:36:17;;;;;;;;;;;16.30;97.00;;;;;;5002796;28;19941;-62
2022/05/22 06:41:28;;;;;;;;;;;16.30;97.20;;;;;;4984055;28;19932;-63
2022/05/22 06:43:55;;;;;;;;;;;16.70;98.00;;;;;;5018484;28;19924;-63
2022/05/22 06:46:30;;;;;;;;;;;18.70;92.50;;;;;;4971888;28;19927;-63
2022/05/22 06:48:56;;;;;;;;;;;21.20;73.60;;;;;;4970706;28;19980;-63
2022/05/22 06:51:23;;;;;;;;;;;22.10;63.60;;;;;;4979591;28;20013;-63
2022/05/22 06:53:50;;;;;;;;;;;21.40;59.20;;;;;;4987379;28;19962;-63
2022/05/22 06:56:16;;;;;;;;;;;21.80;55.80;;;;;;4973771;28;20305;-63
2022/05/22 06:58:43;;;;;;;;;;;21.80;53.80;;;;;;4977317;28;19930;-63
2022/05/22 07:01:10;;;;;;;;;;;22.90;52.30;;;;;;5041834;28;19937;-64
2022/05/22 07:03:38;;;;;;;;;;;22.70;48.00;;;;;;4976993;28;19924;-64
2022/05/22 07:06:04;;;;;;;;;;;23.60;45.50;;;;;;4976067;28;19926;-64
2022/05/22 07:08:31;;;;;;;;;;;24.80;39.40;;;;;;5005956;28;20288;-64
2022/05/22 07:13:41;;;;;;;;;;;24.00;37.50;;;;;;4980577;28;20301;-64
2022/05/22 07:16:08;;;;;;;;;;;23.10;40.00;;;;;;4973402;28;20300;-64
2022/05/22 07:18:35;;;;;;;;;;;22.80;41.00;;;;;;4981853;28;20383;-63
2022/05/22 07:21:03;;;;;;;;;;;23.70;39.40;;;;;;5004909;28;19926;-63
2022/05/22 07:23:29;;;;;;;;;;;21.90;41.20;;;;;;5015250;28;19930;-64
2022/05/22 07:25:56;;;;;;;;;;;24.10;38.00;;;;;;4974544;28;20032;-64
2022/05/22 07:28:23;;;;;;;;;;;22.60;39.20;;;;;;5011719;28;19926;-63
2022/05/22 07:30:50;;;;;;;;;;;23.40;35.40;;;;;;5003582;28;19926;-64
2022/05/22 07:33:17;;;;;;;;;;;23.50;37.50;;;;;;5004605;28;19941;-64
2022/05/22 07:35:52;;;;;;;;;;;24.70;33.00;;;;;;5007527;28;19941;-66
2022/05/22 07:38:20;;;;;;;;;;;26.80;28.50;;;;;;4982848;28;19957;-64
2022/05/22 07:40:47;;;;;;;;;;;27.60;23.00;;;;;;4989210;28;19941;-64
2022/05/22 07:43:13;;;;;;;;;;;24.80;51.10;;;;;;4992137;28;20389;-63
2022/05/22 07:45:40;;;;;;;;;;;23.60;57.30;;;;;;4999855;28;19969;-64
2022/05/22 07:48:07;;;;;;;;;;;24.60;56.20;;;;;;4997153;28;20029;-64
2022/05/22 07:50:34;;;;;;;;;;;24.60;54.00;;;;;;5008805;28;19926;-63
2022/05/22 07:53:01;;;;;;;;;;;23.10;59.30;;;;;;4997222;28;19932;-64
2022/05/22 07:55:29;;;;;;;;;;;23.60;56.70;;;;;;4995279;28;19926;-63
2022/05/22 07:57:55;;;;;;;;;;;24.50;55.90;;;;;;5000416;28;19924;-63
2022/05/22 08:00:22;;;;;;;;;;;26.60;50.80;;;;;;5000655;28;20017;-63
2022/05/22 08:02:49;;;;;;;;;;;24.70;58.80;;;;;;4970455;28;19926;-63
2022/05/22 08:05:18;;;;;;;;;;;24.40;61.70;;;;;;4973123;28;19926;-64
2022/05/22 08:07:44;;;;;;;;;;;26.20;56.40;;;;;;5014151;28;19926;-64
2022/05/22 08:10:12;;;;;;;;;;;27.70;51.90;;;;;;4989804;28;19933;-65
2022/05/22 08:12:39;;;;;;;;;;;;;;;;;;4983268;28;19957;-64
2022/05/22 08:15:06;;;;;;;;;;;;;;;;;;4968133;28;19944;-65
2022/05/22 08:17:36;;;;;;;;;;;22.20;25.80;;;;;;5009551;28;20448;-63
2022/05/22 08:20:03;;;;;;;;;;;22.50;27.80;;;;;;4969786;28;20485;-64
2022/05/22 08:22:30;;;;;;;;;;;23.80;26.10;;;;;;4988101;28;19924;-64
2022/05/22 08:24:57;;;;;;;;;;;22.70;26.30;;;;;;4977464;28;19926;-64
2022/05/22 08:27:23;;;;;;;;;;;22.20;29.10;;;;;;4966401;28;19933;-64
2022/05/22 08:29:50;;;;;;;;;;;23.30;26.80;;;;;;4988256;28;19926;-64
2022/05/22 08:32:17;;;;;;;;;;;24.20;25.70;;;;;;4968712;28;20378;-64
2022/05/22 08:34:45;;;;;;;;;;;26.00;23.30;;;;;;4976120;28;20040;-64
2022/05/22 08:37:11;;;;;;;;;;;23.80;25.00;;;;;;4976751;28;20017;-64
2022/05/22 08:39:38;;;;;;;;;;;23.50;25.00;;;;;;4967399;28;19933;-64
2022/05/22 08:42:07;;;;;;;;;;;22.30;25.90;;;;;;4969193;28;20369;-64
2022/05/22 08:44:34;;;;;;;;;;;22.20;26.10;;;;;;4967470;28;19926;-64
2022/05/22 08:47:03;;;;;;;;;;;22.30;26.50;;;;;;4980188;28;19930;-64
2022/05/22 08:49:31;;;;;;;;;;;23.80;26.60;;;;;;4978808;28;19926;-64
2022/05/22 08:52:02;;;;;;;;;;;23.00;26.80;;;;;;4988951;28;19940;-63
2022/05/22 08:54:31;;;;;;;;;;;23.30;27.20;;;;;;4987165;28;20377;-64
2022/05/22 08:59:50;;;;;;;;;;;23.70;25.60;;;;;;4996103;28;19925;-64
2022/05/22 09:02:26;;;;;;;;;;;26.70;21.50;;;;;;5006355;28;19926;-64
2022/05/22 09:04:57;;;;;;;;;;;28.10;18.10;;;;;;5006873;28;19931;-64
2022/05/22 09:07:29;;;;;;;;;;;28.60;16.00;;;;;;4963301;28;19930;-64
2022/05/22 09:09:58;;;;;;;;;;;28.60;15.00;;;;;;4982950;28;20289;-64
2022/05/22 09:12:36;;;;;;;;;;;28.20;15.40;;;;;;4985238;28;19933;-64
2022/05/22 09:15:05;;;;;;;;;;;28.50;13.50;;;;;;4972386;28;19927;-64
2022/05/22 09:17:34;;;;;;;;;;;24.40;19.50;;;;;;5002439;28;20083;-64
2022/05/22 09:20:07;;;;;;;;;;;23.40;21.30;;;;;;4986335;28;19974;-64
2022/05/22 09:22:38;;;;;;;;;;;23.30;22.80;;;;;;4968607;28;19927;-64
2022/05/22 09:25:08;;;;;;;;;;;22.50;22.80;;;;;;4978196;28;19932;-64
2022/05/22 09:27:40;;;;;;;;;;;22.30;24.50;;;;;;4995036;28;19935;-65
2022/05/22 09:30:08;;;;;;;;;;;23.10;24.30;;;;;;4967477;28;20293;-64
2022/05/22 09:32:40;;;;;;;;;;;24.20;22.10;;;;;;4974616;28;19958;-64
2022/05/22 09:35:13;;;;;;;;;;;24.40;21.70;;;;;;4989210;28;19925;-64
2022/05/22 09:37:46;;;;;;;;;;;24.30;20.70;;;;;;5012716;28;20028;-63
2022/05/22 09:40:18;;;;;;;;;;;23.00;22.60;;;;;;4995654;28;20290;-64
2022/05/22 09:42:54;;;;;;;;;;;23.50;22.90;;;;;;4991705;28;20452;-64
2022/05/22 09:45:30;;;;;;;;;;;23.30;23.60;;;;;;4969082;28;20028;-63
2022/05/22 09:48:11;;;;;;;;;;;22.60;23.00;;;;;;4965976;28;20082;-64
2022/05/22 09:50:44;;;;;;;;;;;23.00;24.10;;;;;;5006301;28;20369;-64
2022/05/22 09:53:18;;;;;;;;;;;22.90;24.00;;;;;;4994447;28;20550;-64
2022/05/22 09:55:46;;;;;;;;;;;22.40;25.20;;;;;;5008932;28;19930;-64
2022/05/22 09:58:27;;;;;;;;;;;24.00;23.20;;;;;;4979773;28;19934;-64
2022/05/22 10:00:58;;;;;;;;;;;25.80;19.90;;;;;;4967112;28;19926;-64
2022/05/22 10:03:33;;;;;;;;;;;26.70;17.70;;;;;;4966084;28;20377;-64
2022/05/22 10:06:05;;;;;;;;;;;26.70;16.00;;;;;;4973384;28;19926;-64
2022/05/22 10:08:38;;;;;;;;;;;26.50;14.50;;;;;;4966695;28;19994;-64
2022/05/22 10:11:08;;;;;;;;;;;24.90;15.70;;;;;;4969581;28;19936;-64
2022/05/22 10:13:38;;;;;;;;;;;23.70;16.40;;;;;;4984551;28;19946;-63
2022/05/22 10:16:16;;;;;;;;;;;23.00;17.60;;;;;;4967337;28;19926;-64
2022/05/22 10:18:48;;;;;;;;;;;22.30;18.40;;;;;;4963399;28;20399;-64
2022/05/22 10:21:19;;;;;;;;;;;21.70;20.20;;;;;;4976896;28;19926;-64
2022/05/22 10:23:55;;;;;;;;;;;21.90;20.70;;;;;;4976220;28;19926;-65
2022/05/22 10:26:28;;;;;;;;;;;22.30;21.10;;;;;;4967217;28;19930;-64
2022/05/22 10:28:58;;;;;;;;;;;22.40;20.80;;;;;;4963105;28;19926;-65
2022/05/22 10:31:29;;;;;;;;;;;22.30;20.90;;;;;;4975416;28;20371;-64
2022/05/22 10:34:01;;;;;;;;;;;22.40;21.50;;;;;;4967248;28;20444;-64
2022/05/22 10:36:29;;;;;;;;;;;22.10;21.30;;;;;;4967278;28;20393;-65
2022/05/22 10:39:01;;;;;;;;;;;21.80;22.00;;;;;;4966948;28;19934;-64
2022/05/22 10:44:16;;;;;;;;;;;22.10;23.40;;;;;;4982850;28;19933;-64
2022/05/22 10:46:48;;;;;;;;;;;22.60;22.90;;;;;;4994774;28;20318;-65
2022/05/22 10:49:15;;;;;;;;;;;22.30;22.40;;;;;;4981345;28;19926;-64
2022/05/22 10:51:42;;;;;;;;;;;22.20;22.10;;;;;;4968940;28;19926;-64
2022/05/22 10:54:22;;;;;;;;;;;22.20;21.90;;;;;;4969176;28;20248;-63
2022/05/22 10:56:49;;;;;;;;;;;21.60;23.10;;;;;;4963955;28;19933;-63
2022/05/22 10:59:19;;;;;;;;;;;21.90;22.20;;;;;;4976609;28;19926;-64
2022/05/22 11:01:57;;;;;;;;;;;22.20;22.30;;;;;;4997076;28;20460;-63
2022/05/22 11:04:33;;;;;;;;;;;22.50;21.20;;;;;;4992409;28;19975;-63
2022/05/22 11:07:01;;;;;;;;;;;22.30;21.40;;;;;;5004881;28;19930;-64
2022/05/22 11:09:31;;;;;;;;;;;22.30;22.90;;;;;;4984959;28;20000;-63
2022/05/22 11:12:04;;;;;;;;;;;22.50;20.10;;;;;;4992770;28;19956;-64
2022/05/22 11:14:33;;;;;;;;;;;22.60;19.80;;;;;;4985846;28;20956;-63
2022/05/22 11:17:07;;;;;;;;;;;22.70;19.80;;;;;;4991567;28;20019;-63
2022/05/22 11:19:36;;;;;;;;;;;22.50;19.80;;;;;;4979225;28;19999;-65
2022/05/22 11:22:11;;;;;;;;;;;22.10;19.70;;;;;;4980222;28;19932;-64
2022/05/22 11:24:43;;;;;;;;;;;21.60;22.10;;;;;;4974329;28;19965;-64
2022/05/22 11:27:18;;;;;;;;;;;21.70;21.70;;;;;;4976704;28;20194;-64
2022/05/22 11:30:01;;;;;;;;;;;21.80;21.00;;;;;;4963571;28;19926;-64
2022/05/22 11:32:35;;;;;;;;;;;21.90;20.90;;;;;;4965590;28;19932;-64
2022/05/22 11:35:17;;;;;;;;;;;21.90;22.00;;;;;;4957548;28;19933;-64
2022/05/22 11:37:48;;;;;;;;;;;21.80;23.70;;;;;;4972406;28;19954;-64
2022/05/22 11:40:24;;;;;;;;;;;22.30;22.10;;;;;;5012708;28;19982;-65
2022/05/22 11:42:53;;;;;;;;;;;22.70;20.80;;;;;;4971160;28;20032;-65
2022/05/22 11:45:25;;;;;;;;;;;23.00;22.00;;;;;;5010202;28;19964;-64
2022/05/22 11:48:07;;;;;;;;;;;22.50;21.10;;;;;;5000752;28;20359;-64
2022/05/22 11:50:37;;;;;;;;;;;22.80;20.60;;;;;;4995315;28;19945;-64
2022/05/22 11:53:13;;;;;;;;;;;22.90;20.80;;;;;;5001796;28;20025;-64
2022/05/22 11:55:46;;;;;;;;;;;23.00;19.50;;;;;;4989361;28;19926;-64
2022/05/22 11:58:19;;;;;;;;;;;23.10;19.10;;;;;;5030439;28;20041;-64
2022/05/22 12:00:50;;;;;;;;;;;23.30;19.10;;;;;;5009059;28;19937;-67
2022/05/22 12:03:30;;;;;;;;;;;23.20;19.20;;;;;;4999413;28;19926;-65
2022/05/22 12:06:03;;;;;;;;;;;23.30;18.80;;;;;;4994087;28;19961;-65
2022/05/22 12:08:42;;;;;;;;;;;23.50;18.70;;;;;;5030884;28;19931;-64
2022/05/22 12:11:12;;;;;;;;;;;22.60;19.90;;;;;;4960191;28;19945;-64
2022/05/22 12:13:43;;;;;;;;;;;22.50;19.30;;;;;;4970083;28;19934;-64
2022/05/22 12:16:11;;;;;;;;;;;22.70;20.30;;;;;;4971477;28;19937;-64
2022/05/22 12:19:03;;;;;;;;;;;22.80;19.10;;;;;;4967388;28;20365;-64
2022/05/22 12:21:35;;;;;;;;;;;23.00;19.20;;;;;;4972503;28;19926;-65
2022/05/22 12:24:07;;;;;;;;;;;22.10;20.00;;;;;;4970912;28;19930;-65
2022/05/22 12:26:36;;;;;;;;;;;21.80;21.80;;;;;;4971350;28;19957;-65
2022/05/22 12:29:05;;;;;;;;;;;22.60;21.10;;;;;;4966501;28;20079;-65
2022/05/22 12:31:33;;;;;;;;;;;22.20;20.30;;;;;;4972431;28;20025;-65
2022/05/22 12:34:03;;;;;;;;;;;22.30;21.70;;;;;;4971025;28;19926;-65
2022/05/22 12:36:31;;;;;;;;;;;23.00;20.30;;;;;;4972736;28;19932;-65
2022/05/22 12:39:01;;;;;;;;;;;23.40;19.20;;;;;;4969194;28;20016;-65
2022/05/22 12:41:36;;;;;;;;;;;23.60;18.80;;;;;;4971273;28;20050;-65
2022/05/22 12:44:05;;;;;;;;;;;23.80;18.20;;;;;;4970923;28;19955;-65
2022/05/22 12:46:32;;;;;;;;;;;22.60;20.40;;;;;;4972524;28;20318;-66
2022/05/22 12:49:06;;;;;;;;;;;22.20;19.90;;;;;;4968907;28;19926;-65
2022/05/22 12:51:35;;;;;;;;;;;22.30;22.10;;;;;;4970950;28;19930;-65
2022/05/22 12:54:08;;;;;;;;;;;22.60;20.90;;;;;;4967486;28;19933;-66
2022/05/22 12:56:39;;;;;;;;;;;22.40;21.90;;;;;;4971795;28;19926;-65
2022/05/22 12:59:18;;;;;;;;;;;22.70;21.90;;;;;;4966059;28;20404;-66
2022/05/22 13:01:46;;;;;;;;;;;22.10;21.00;;;;;;4971076;28;19932;-65
2022/05/22 13:04:39;;;;;;;;;;;22.30;22.20;;;;;;4969495;28;19933;-65
2022/05/22 13:07:10;;;;;;;;;;;22.50;21.90;;;;;;4947749;28;20039;-65
2022/05/22 13:09:39;;;;;;;;;;;22.30;21.20;;;;;;4969728;28;20288;-64
2022/05/22 13:12:08;;;;;;;;;;;22.70;20.30;;;;;;4969256;28;19930;-65
2022/05/22 13:14:40;;;;;;;;;;;23.10;20.50;;;;;;4968737;28;19934;-65
2022/05/22 13:17:08;;;;;;;;;;;23.40;20.10;;;;;;4969802;28;20270;-66
2022/05/22 13:19:35;;;;;;;;;;;23.60;19.40;;;;;;4968538;28;20440;-65
2022/05/22 13:22:10;;;;;;;;;;;23.80;19.30;;;;;;4970995;28;19930;-66
2022/05/22 13:24:38;;;;;;;;;;;24.30;18.30;;;;;;4969302;28;19949;-66
2022/05/22 13:27:06;;;;;;;;;;;24.60;17.70;;;;;;4968862;28;19989;-64
2022/05/22 13:29:42;;;;;;;;;;;23.90;17.80;;;;;;4967297;28;19932;-63
2022/05/22 13:32:13;;;;;;;;;;;23.00;19.90;;;;;;4972169;28;19926;-63
2022/05/22 13:34:40;;;;;;;;;;;23.20;20.50;;;;;;4970066;28;19926;-64
2022/05/22 13:37:08;;;;;;;;;;;23.00;19.70;;;;;;4969883;28;19926;-64
2022/05/22 13:39:44;;;;;;;;;;;22.80;18.80;;;;;;4969851;28;19934;-64
2022/05/22 13:42:29;;;;;;;;;;;22.60;20.60;;;;;;4971314;28;20308;-64
2022/05/22 13:45:15;;;;;;;;;;;23.10;20.80;;;;;;4968777;28;19926;-64
2022/05/22 13:47:59;;;;;;;;;;;23.60;19.90;;;;;;4970371;28;20016;-64
2022/05/22 13:53:19;;;;;;;;;;;24.30;18.90;;;;;;4968036;28;19937;-64
2022/05/22 13:55:47;;;;;;;;;;;24.80;17.30;;;;;;4970065;28;19930;-64
2022/05/22 13:58:17;;;;;;;;;;;24.80;17.10;;;;;;4968301;28;19930;-64
2022/05/22 14:00:46;;;;;;;;;;;24.90;17.30;;;;;;4971411;28;20364;-65
2022/05/22 14:03:21;;;;;;;;;;;24.80;16.70;;;;;;4975504;28;19937;-65
2022/05/22 14:05:52;;;;;;;;;;;24.20;18.10;;;;;;5066139;28;20038;-63
2022/05/22 14:08:19;;;;;;;;;;;24.30;17.60;;;;;;4988282;28;19969;-63
2022/05/22 14:10:47;;;;;;;;;;;24.70;18.10;;;;;;4992725;28;19924;-64
2022/05/22 14:13:15;;;;;;;;;;;24.80;17.70;;;;;;5039062;28;19980;-65
2022/05/22 14:15:48;;;;;;;;;;;25.00;17.50;;;;;;4972555;28;19934;-65
2022/05/22 14:18:15;;;;;;;;;;;24.40;18.70;;;;;;4971474;28;19930;-65
2022/05/22 14:20:45;;;;;;;;;;;24.90;17.80;;;;;;5044812;28;20301;-66
2022/05/22 14:23:16;;;;;;;;;;;25.20;17.20;;;;;;4968212;28;19934;-64
2022/05/22 14:25:43;;;;;;;;;;;25.40;16.90;;;;;;4974626;28;19995;-64
2022/05/22 14:28:11;;;;;;;;;;;25.20;17.40;;;;;;4989855;28;19937;-64
2022/05/22 14:30:39;;;;;;;;;;;25.10;17.20;;;;;;5002014;28;19952;-64
2022/05/22 14:33:11;;;;;;;;;;;24.60;16.80;;;;;;4993054;28;20410;-64
2022/05/22 14:35:38;;;;;;;;;;;24.20;18.60;;;;;;4962609;28;19926;-65
2022/05/22 14:38:16;;;;;;;;;;;24.00;18.90;;;;;;4966969;28;19932;-64
2022/05/22 14:40:45;;;;;;;;;;;24.30;19.20;;;;;;4968566;28;19926;-65
2022/05/22 14:43:12;;;;;;;;;;;24.30;18.50;;;;;;4964567;28;19934;-64
2022/05/22 14:45:41;;;;;;;;;;;24.60;18.00;;;;;;4960924;28;19937;-63